createdAt,value
2023-01-12T00:10:39.689Z,19.22
2023-01-12T00:13:05.302Z,13.10
2023-01-12T00:14:16.003Z,11.25
2023-01-12T00:16:51.975Z,12.05
2023-01-12T00:18:01.112Z,12.82
2023-01-12T00:19:15.845Z,14.72
2023-01-12T00:20:24.789Z,14.28
2023-01-12T00:21:46.069Z,10.58
2023-01-12T00:22:55.012Z,14.82
2023-01-12T00:25:22.367Z,11.90
2023-01-12T00:27:49.819Z,11.93
2023-01-12T00:28:59.610Z,10.47
2023-01-12T00:30:10.784Z,7.92
2023-01-12T00:31:19.943Z,11.00
2023-01-12T00:32:30.516Z,12.35
2023-01-12T00:33:40.238Z,12.70
2023-01-12T00:34:49.966Z,9.22
2023-01-12T00:36:04.792Z,7.88
2023-01-12T00:37:14.764Z,10.15
2023-01-12T00:38:24.599Z,12.33
2023-01-12T00:39:37.472Z,8.93
2023-01-12T00:40:48.864Z,11.22
2023-01-12T00:42:18.067Z,12.23
2023-01-12T00:43:45.166Z,11.90
2023-01-12T00:45:12.878Z,10.92
2023-01-12T00:46:33.643Z,18.07
2023-01-12T00:47:42.758Z,12.57
2023-01-12T00:48:51.771Z,12.78
2023-01-12T00:50:01.365Z,14.52
2023-01-12T00:51:10.066Z,10.45
2023-01-12T00:52:30.960Z,12.72
2023-01-12T00:53:34.232Z,12.35
2023-01-12T00:54:43.469Z,17.30
2023-01-12T00:55:51.986Z,11.92
2023-01-12T00:57:01.929Z,13.24
2023-01-12T00:58:11.514Z,13.25
2023-01-12T00:59:20.500Z,11.78
2023-01-12T01:00:30.283Z,12.30
2023-01-12T01:01:38.857Z,15.30
2023-01-12T01:02:55.207Z,13.98
2023-01-12T01:04:04.158Z,11.97
2023-01-12T01:05:13.174Z,12.42
2023-01-12T01:06:23.072Z,11.12
2023-01-12T01:07:32.344Z,10.38
2023-01-12T01:08:41.399Z,11.77
2023-01-12T01:11:09.569Z,10.95
2023-01-12T01:12:20.121Z,12.80
2023-01-12T01:13:29.693Z,11.55
2023-01-12T01:14:39.432Z,11.37
2023-01-12T01:15:49.042Z,13.10
2023-01-12T01:16:57.829Z,11.74
2023-01-12T01:18:06.823Z,14.52
2023-01-12T01:19:16.564Z,13.13
2023-01-12T01:20:25.075Z,11.17
2023-01-12T01:21:36.303Z,12.68
2023-01-12T01:22:45.560Z,15.73
2023-01-12T01:23:54.595Z,12.75
2023-01-12T01:25:04.225Z,13.27
2023-01-12T01:27:36.659Z,11.50
2023-01-12T01:28:46.233Z,13.22
2023-01-12T01:29:55.604Z,12.03
2023-01-12T01:31:14.779Z,12.14
2023-01-12T01:32:24.268Z,12.37
2023-01-12T01:33:33.921Z,17.12
2023-01-12T01:34:44.232Z,12.43
2023-01-12T01:35:53.730Z,10.70
2023-01-12T01:37:12.167Z,11.27
2023-01-12T01:38:20.802Z,11.12
2023-01-12T01:39:30.631Z,13.82
2023-01-12T01:40:43.799Z,11.48
2023-01-12T01:43:11.141Z,14.72
2023-01-12T01:44:35.536Z,11.25
2023-01-12T01:47:10.561Z,11.32
2023-01-12T01:48:21.407Z,17.18
2023-01-12T01:50:45.863Z,12.82
2023-01-12T01:51:58.170Z,12.07
2023-01-12T01:54:29.546Z,13.53
2023-01-12T01:57:06.096Z,12.63
2023-01-12T01:58:21.738Z,12.00
2023-01-12T01:59:34.606Z,14.98
2023-01-12T02:02:03.881Z,12.98
2023-01-12T02:03:14.580Z,12.82
2023-01-12T02:04:26.282Z,13.58
2023-01-12T02:05:38.428Z,13.80
2023-01-12T02:06:48.985Z,12.18
2023-01-12T02:09:20.868Z,10.05
2023-01-12T02:10:30.015Z,10.53
2023-01-12T02:11:57.623Z,14.10
2023-01-12T02:13:25.705Z,8.88
2023-01-12T02:14:53.632Z,10.02
2023-01-12T02:16:22.366Z,12.55
2023-01-12T02:19:28.538Z,8.96
2023-01-12T02:20:48.727Z,10.63
2023-01-12T02:22:03.819Z,11.70
2023-01-12T02:23:33.239Z,12.77
2023-01-12T02:26:29.958Z,12.53
2023-01-12T02:27:46.505Z,13.13
2023-01-12T02:29:25.743Z,14.33
2023-01-12T02:31:13.738Z,15.62
2023-01-12T02:32:29.859Z,16.00
2023-01-12T02:33:47.098Z,13.75
2023-01-12T02:35:08.610Z,18.45
2023-01-12T02:36:28.006Z,17.67
2023-01-12T02:38:03.631Z,19.10
2023-01-12T02:39:19.943Z,14.97
2023-01-12T02:40:36.531Z,17.07
2023-01-12T02:42:11.412Z,17.38
2023-01-12T02:43:29.526Z,19.68
2023-01-12T02:46:21.744Z,18.63
2023-01-12T02:47:40.814Z,17.63
2023-01-12T02:48:56.773Z,20.05
2023-01-12T02:50:10.224Z,14.48
2023-01-12T02:51:42.046Z,15.97
2023-01-12T02:52:56.331Z,16.37
2023-01-12T02:54:10.833Z,17.30
2023-01-12T02:55:21.939Z,19.25
2023-01-12T02:56:44.817Z,16.45
2023-01-12T02:57:57.100Z,15.62
2023-01-12T02:59:10.087Z,14.75
2023-01-12T03:00:21.448Z,15.78
2023-01-12T03:01:34.042Z,15.80
2023-01-12T03:02:44.625Z,17.48
2023-01-12T03:03:57.904Z,14.63
2023-01-12T03:05:09.410Z,17.47
2023-01-12T03:08:57.488Z,15.17
2023-01-12T03:10:24.196Z,15.70
2023-01-12T03:11:37.598Z,14.04
2023-01-12T03:12:51.483Z,15.37
2023-01-12T03:14:03.102Z,14.30
2023-01-12T03:15:17.574Z,13.55
2023-01-12T03:18:07.515Z,14.60
2023-01-12T03:19:20.375Z,15.13
2023-01-12T03:20:36.690Z,13.07
2023-01-12T03:21:49.457Z,15.13
2023-01-12T03:23:03.826Z,15.37
2023-01-12T03:25:33.973Z,14.00
2023-01-12T03:26:52.060Z,16.98
2023-01-12T03:28:04.443Z,15.08
2023-01-12T03:30:48.991Z,15.75
2023-01-12T03:31:59.366Z,16.25
2023-01-12T03:33:11.177Z,14.60
2023-01-12T03:34:21.425Z,13.48
2023-01-12T03:35:34.622Z,17.00
2023-01-12T03:37:01.042Z,17.67
2023-01-12T03:40:02.400Z,16.32
2023-01-12T03:41:15.353Z,11.73
2023-01-12T03:42:28.193Z,11.88
2023-01-12T03:43:41.374Z,9.05
2023-01-12T03:45:15.671Z,9.10
2023-01-12T03:47:57.889Z,10.15
2023-01-12T03:50:45.085Z,8.62
2023-01-12T03:51:58.281Z,8.40
2023-01-12T03:53:09.952Z,6.92
2023-01-12T03:54:21.487Z,8.45
2023-01-12T03:55:32.910Z,8.32
2023-01-12T03:56:44.881Z,8.25
2023-01-12T03:57:56.239Z,11.60
2023-01-12T03:59:05.904Z,8.93
2023-01-12T04:00:19.652Z,9.55
2023-01-12T04:01:28.945Z,10.42
2023-01-12T04:02:40.285Z,10.55
2023-01-12T09:07:54.435Z,15.57
2023-01-12T09:09:12.195Z,9.98
2023-01-12T09:10:22.350Z,14.43
2023-01-12T09:11:36.034Z,8.10
2023-01-12T09:12:44.811Z,8.95
2023-01-12T09:13:56.192Z,12.70
2023-01-12T09:16:22.861Z,9.30
2023-01-12T09:17:31.497Z,7.37
2023-01-12T09:18:42.128Z,11.80
2023-01-12T09:19:51.460Z,8.13
2023-01-12T09:22:23.505Z,8.35
2023-01-12T09:23:33.556Z,9.10
2023-01-12T09:24:43.283Z,7.90
2023-01-12T09:25:51.799Z,6.75
2023-01-12T09:27:02.101Z,7.83
2023-01-12T09:28:10.705Z,8.67
2023-01-12T09:29:19.345Z,6.38
2023-01-12T09:30:29.007Z,9.40
2023-01-12T09:32:55.366Z,11.08
2023-01-12T09:35:38.730Z,12.98
2023-01-12T09:36:49.743Z,10.47
2023-01-12T09:39:15.368Z,7.25
2023-01-12T09:40:21.093Z,5.73
2023-01-12T09:43:33.128Z,9.32
2023-01-12T09:45:06.782Z,9.13
2023-01-12T09:46:41.714Z,8.40
2023-01-12T09:47:55.972Z,7.95
2023-01-12T09:49:06.418Z,9.20
2023-01-12T09:50:22.519Z,8.07
2023-01-12T09:51:37.732Z,9.72
2023-01-12T09:54:17.002Z,5.85
2023-01-12T09:57:20.669Z,6.58
2023-01-12T09:58:50.915Z,8.42
2023-01-12T10:00:15.914Z,8.47
2023-01-12T10:01:29.616Z,8.62
2023-01-12T10:02:40.191Z,7.33
2023-01-12T10:03:50.751Z,5.47
2023-01-12T10:05:02.981Z,8.30
2023-01-12T10:06:18.272Z,10.28
2023-01-12T10:07:27.049Z,10.12
2023-01-12T10:08:39.793Z,4.97
2023-01-12T10:09:49.785Z,9.52
2023-01-12T10:11:29.647Z,9.95
2023-01-12T10:12:42.385Z,9.17
2023-01-12T10:14:13.176Z,6.87
2023-01-12T10:17:13.740Z,10.27
2023-01-12T10:18:31.050Z,10.10
2023-01-12T10:19:50.971Z,8.42
2023-01-12T10:22:37.566Z,8.57
2023-01-12T10:23:47.936Z,9.43
2023-01-12T10:24:56.712Z,6.63
2023-01-12T10:26:24.363Z,8.50
2023-01-12T10:28:56.522Z,10.85
2023-01-12T10:31:26.838Z,8.77
2023-01-12T10:32:41.925Z,9.85
2023-01-12T10:35:25.116Z,7.42
2023-01-12T10:36:39.766Z,9.12
2023-01-12T10:37:53.706Z,14.62
2023-01-12T10:39:05.579Z,9.60
2023-01-12T10:40:30.822Z,8.77
2023-01-12T10:41:39.433Z,7.17
2023-01-12T10:44:32.206Z,11.45
2023-01-12T10:45:43.236Z,11.62
2023-01-12T10:46:58.976Z,11.53
2023-01-12T10:48:17.942Z,11.95
2023-01-12T10:49:27.492Z,13.13
2023-01-12T10:50:36.843Z,11.28
2023-01-12T10:52:00.591Z,13.92
2023-01-12T10:53:17.464Z,8.37
2023-01-12T10:54:32.135Z,13.25
2023-01-12T10:55:44.407Z,17.27
2023-01-12T10:57:20.864Z,14.25
2023-01-12T10:58:32.607Z,14.12
2023-01-12T10:59:43.333Z,17.12
2023-01-12T11:04:49.584Z,12.18
2023-01-12T11:06:18.295Z,10.82
2023-01-12T11:07:31.289Z,16.05
2023-01-12T11:08:41.120Z,12.35
2023-01-12T11:09:50.753Z,8.50
2023-01-12T11:11:04.140Z,9.30
2023-01-12T11:12:31.684Z,13.38
2023-01-12T11:13:41.469Z,17.13
2023-01-12T11:17:49.889Z,13.15
2023-01-12T11:19:05.150Z,10.92
2023-01-12T11:20:26.580Z,10.32
2023-01-12T11:21:38.937Z,9.32
2023-01-12T11:22:50.683Z,12.27
2023-01-12T11:24:34.567Z,16.30
2023-01-12T11:25:45.838Z,12.48
2023-01-12T11:27:05.809Z,15.65
2023-01-12T11:28:30.088Z,13.94
2023-01-12T11:29:57.390Z,20.48
2023-01-12T11:32:44.255Z,12.58
2023-01-12T11:35:32.220Z,13.30
2023-01-12T11:36:44.459Z,16.80
2023-01-12T11:37:56.788Z,19.06
2023-01-12T11:39:14.766Z,12.25
2023-01-12T11:40:37.165Z,10.07
2023-01-12T11:42:16.733Z,15.68
2023-01-12T11:43:50.179Z,12.77
2023-01-12T11:45:11.427Z,11.68
2023-01-12T11:47:58.335Z,12.35
2023-01-12T11:49:27.367Z,11.17
2023-01-12T11:50:39.196Z,10.90
2023-01-12T11:51:50.625Z,10.78
2023-01-12T11:53:01.566Z,13.95
2023-01-12T11:54:14.346Z,13.00
2023-01-12T11:55:35.853Z,14.10
2023-01-12T11:57:02.531Z,13.25
2023-01-12T12:00:01.480Z,11.40
2023-01-12T12:04:51.068Z,11.03
2023-01-12T12:06:25.501Z,15.82
2023-01-12T12:07:49.972Z,13.37
2023-01-12T12:09:35.469Z,14.63
2023-01-12T12:10:54.644Z,21.77
2023-01-12T12:13:37.746Z,18.14
2023-01-12T12:15:00.765Z,14.40
2023-01-12T12:16:14.737Z,16.77
2023-01-12T12:17:46.289Z,15.48
2023-01-12T12:19:02.151Z,16.06
2023-01-12T12:20:19.588Z,12.08
2023-01-12T12:21:37.984Z,14.13
2023-01-12T12:24:57.373Z,15.28
2023-01-12T12:26:29.146Z,12.50
2023-01-12T12:27:41.460Z,13.42
2023-01-12T12:30:42.905Z,19.70
2023-01-12T12:31:58.468Z,20.08
2023-01-12T12:33:21.980Z,22.58
2023-01-12T12:34:46.533Z,17.82
2023-01-12T12:36:02.469Z,22.63
2023-01-12T12:37:33.103Z,23.08
2023-01-12T12:38:47.510Z,30.95
2023-01-12T12:40:13.547Z,22.78
2023-01-12T12:42:01.345Z,24.25
2023-01-12T12:43:32.685Z,24.68
2023-01-12T12:45:13.458Z,24.93
2023-01-12T12:48:02.908Z,25.68
2023-01-12T12:49:20.179Z,22.37
2023-01-12T12:50:53.764Z,26.58
2023-01-12T12:52:05.309Z,23.03
2023-01-12T12:53:33.070Z,18.78
2023-01-12T12:54:43.432Z,18.27
2023-01-12T12:55:55.377Z,17.55
2023-01-12T12:57:05.773Z,17.80
2023-01-12T12:59:59.880Z,22.95
2023-01-12T13:01:28.688Z,15.63
2023-01-12T13:04:04.540Z,21.17
2023-01-12T13:05:16.870Z,23.38
2023-01-12T13:06:32.681Z,23.70
2023-01-12T13:07:45.400Z,22.07
2023-01-12T13:10:26.315Z,21.70
2023-01-12T13:11:57.071Z,24.47
2023-01-12T13:13:09.742Z,22.37
2023-01-12T13:14:23.076Z,22.87
2023-01-12T13:15:36.100Z,29.80
2023-01-12T13:16:51.749Z,28.62
2023-01-12T13:18:01.635Z,31.68
2023-01-12T13:19:13.366Z,25.37
2023-01-12T13:21:58.419Z,31.17
2023-01-12T13:23:11.443Z,28.50
2023-01-12T13:24:31.103Z,31.73
2023-01-12T13:25:49.781Z,28.48
2023-01-12T13:27:00.743Z,23.78
2023-01-12T13:28:13.952Z,20.48
2023-01-12T13:29:35.758Z,27.93
2023-01-12T13:30:55.231Z,24.05
2023-01-12T13:32:24.515Z,21.12
2023-01-12T13:33:35.023Z,24.63
2023-01-12T13:36:05.193Z,20.58
2023-01-12T13:37:33.296Z,21.25
2023-01-12T13:40:24.576Z,22.95
2023-01-12T13:41:54.870Z,23.98
2023-01-12T13:44:35.343Z,24.83
2023-01-12T13:46:03.115Z,23.00
2023-01-12T13:48:37.938Z,27.08
2023-01-12T13:49:53.697Z,32.75
2023-01-12T13:51:07.460Z,26.28
2023-01-12T13:53:39.507Z,25.37
2023-01-12T13:56:09.456Z,28.55
2023-01-12T13:57:22.206Z,26.38
2023-01-12T13:58:41.052Z,30.62
2023-01-12T14:01:24.831Z,22.68
2023-01-12T14:02:34.865Z,24.48
2023-01-12T14:04:08.544Z,35.52
2023-01-12T14:05:24.500Z,32.68
2023-01-12T14:08:51.286Z,18.97
2023-01-12T14:10:02.121Z,16.10
2023-01-12T14:11:15.839Z,21.22
2023-01-12T14:12:47.437Z,21.00
2023-01-12T14:14:02.099Z,26.50
2023-01-12T14:15:55.033Z,19.02
2023-01-12T14:17:34.971Z,19.62
2023-01-12T14:18:50.338Z,20.10
2023-01-12T14:19:58.950Z,19.07
2023-01-12T14:21:26.635Z,17.95
2023-01-12T14:22:36.165Z,15.20
2023-01-12T14:23:46.056Z,22.13
2023-01-12T14:24:58.361Z,21.33
2023-01-12T14:26:14.339Z,26.92
2023-01-12T14:27:26.769Z,24.00
2023-01-12T14:31:32.370Z,27.00
2023-01-12T14:32:47.616Z,29.87
2023-01-12T14:34:02.256Z,21.70
2023-01-12T14:36:37.989Z,30.80
2023-01-12T14:37:53.488Z,29.95
2023-01-12T14:39:05.776Z,25.78
2023-01-12T14:40:27.504Z,22.15
2023-01-12T14:41:54.927Z,19.83
2023-01-12T14:43:24.042Z,24.63
2023-01-12T14:44:53.185Z,21.50
2023-01-12T14:46:22.672Z,23.43
2023-01-12T14:47:35.275Z,15.57
2023-01-12T14:49:02.234Z,16.82
2023-01-12T14:50:17.112Z,26.95
2023-01-12T14:51:35.875Z,24.38
2023-01-12T14:52:46.942Z,24.45
2023-01-12T14:53:59.632Z,25.13
2023-01-12T14:55:29.238Z,22.30
2023-01-12T14:58:09.148Z,21.98
2023-01-12T14:59:22.927Z,25.63
2023-01-12T15:00:38.878Z,23.38
2023-01-12T15:01:48.265Z,24.85
2023-01-12T15:03:01.455Z,24.48
2023-01-12T15:05:35.935Z,25.32
2023-01-12T15:06:46.819Z,28.57
2023-01-12T15:09:31.189Z,30.98
2023-01-12T15:10:42.771Z,27.65
2023-01-12T15:11:52.203Z,25.85
2023-01-12T15:13:32.560Z,23.63
2023-01-12T15:14:41.105Z,17.90
2023-01-12T15:16:13.078Z,22.00
2023-01-12T15:17:40.974Z,18.82
2023-01-12T15:19:08.597Z,15.45
2023-01-12T15:20:35.912Z,23.02
2023-01-12T15:22:04.639Z,20.33
2023-01-12T15:23:33.736Z,23.37
2023-01-12T15:25:02.233Z,21.18
2023-01-12T15:26:10.871Z,28.02
2023-01-12T15:27:23.128Z,24.85
2023-01-12T15:28:31.693Z,18.32
2023-01-12T15:29:40.692Z,18.57
2023-01-12T15:30:49.859Z,19.30
2023-01-12T15:33:16.003Z,22.15
2023-01-12T15:34:25.201Z,21.43
2023-01-12T15:35:35.144Z,23.35
2023-01-12T15:36:44.807Z,19.53
2023-01-12T15:37:57.281Z,18.57
2023-01-12T15:39:05.916Z,20.17
2023-01-12T15:40:15.795Z,21.52
2023-01-12T15:41:47.075Z,25.68
2023-01-12T15:42:57.524Z,19.62
2023-01-12T15:44:12.340Z,25.40
2023-01-12T15:45:43.564Z,18.90
2023-01-12T15:46:52.469Z,23.45
2023-01-12T15:48:02.701Z,19.20
2023-01-12T15:49:14.226Z,22.90
2023-01-12T15:50:24.955Z,20.73
2023-01-12T15:51:36.418Z,24.13
2023-01-12T15:52:48.090Z,24.53
2023-01-12T15:53:57.251Z,25.30
2023-01-12T15:55:06.452Z,23.25
2023-01-12T15:56:15.958Z,20.82
2023-01-12T15:57:24.692Z,19.88
2023-01-12T15:58:34.252Z,24.95
2023-01-12T15:59:43.412Z,22.28
2023-01-12T16:00:53.889Z,17.35
2023-01-12T16:03:48.209Z,17.53
2023-01-12T16:04:42.816Z,19.25
2023-01-12T16:05:40.904Z,20.32
2023-01-12T16:06:51.368Z,16.85
2023-01-12T16:08:00.392Z,17.80
2023-01-12T16:09:09.558Z,17.93
2023-01-12T16:10:20.484Z,20.57
2023-01-12T16:11:30.234Z,17.00
2023-01-12T16:12:40.586Z,16.13
2023-01-12T16:13:49.864Z,17.65
2023-01-12T16:16:16.778Z,16.88
2023-01-12T16:17:25.608Z,15.50
2023-01-12T16:19:49.540Z,25.73
2023-01-12T16:20:58.965Z,27.07
2023-01-12T16:22:23.156Z,25.00
2023-01-12T16:23:32.665Z,27.03
2023-01-12T16:24:43.803Z,31.05
2023-01-12T16:25:58.353Z,24.00
2023-01-12T16:27:07.684Z,27.42
2023-01-12T16:28:16.309Z,25.48
2023-01-12T16:29:24.976Z,17.82
2023-01-12T16:30:35.324Z,22.58
2023-01-12T16:31:44.744Z,27.90
2023-01-12T16:32:53.334Z,21.38
2023-01-12T16:34:03.308Z,21.48
2023-01-12T16:35:13.187Z,25.65
2023-01-12T16:37:37.822Z,24.60
2023-01-12T16:40:03.357Z,25.45
2023-01-12T16:42:37.930Z,27.90
2023-01-12T16:43:46.601Z,19.78
2023-01-12T16:44:55.954Z,25.22
2023-01-12T16:46:05.940Z,30.17
2023-01-12T16:47:17.839Z,18.10
2023-01-12T16:48:26.487Z,26.68
2023-01-12T16:49:36.083Z,24.12
2023-01-12T16:50:45.780Z,22.58
2023-01-12T16:51:55.157Z,20.88
2023-01-12T16:53:04.781Z,17.32
2023-01-12T16:54:13.411Z,16.58
2023-01-12T16:55:21.948Z,17.65
2023-01-12T16:56:30.683Z,24.83
2023-01-12T16:57:40.731Z,20.85
2023-01-12T16:58:49.602Z,18.95
2023-01-12T16:59:58.723Z,17.43
2023-01-12T17:01:18.115Z,21.78
2023-01-12T17:02:28.239Z,16.45
2023-01-12T17:03:38.840Z,19.55
2023-01-12T17:06:10.561Z,24.75
2023-01-12T17:07:19.740Z,23.00
2023-01-12T17:08:28.869Z,22.15
2023-01-12T17:09:39.264Z,30.27
2023-01-12T17:10:47.881Z,24.65
2023-01-12T17:11:57.817Z,22.87
2023-01-12T17:13:07.215Z,32.46
2023-01-12T17:14:26.353Z,24.05
2023-01-12T17:15:35.175Z,28.25
2023-01-12T17:16:43.900Z,34.52
2023-01-12T17:17:54.308Z,22.04
2023-01-12T17:19:03.227Z,31.90
2023-01-12T17:20:14.073Z,29.38
2023-01-12T17:21:23.950Z,30.60
2023-01-12T17:22:34.820Z,26.37
2023-01-12T17:24:53.011Z,27.27
2023-01-12T17:26:06.265Z,28.63
2023-01-12T17:27:15.560Z,30.28
2023-01-12T17:28:24.817Z,26.08
2023-01-12T17:30:43.621Z,25.02
2023-01-12T17:31:56.508Z,28.15
2023-01-12T17:33:06.087Z,28.60
2023-01-12T17:34:15.634Z,31.80
2023-01-12T17:35:24.698Z,27.12
2023-01-12T17:36:34.289Z,33.67
2023-01-12T17:37:42.885Z,26.33
2023-01-12T17:38:51.983Z,28.18
2023-01-12T17:40:00.922Z,32.28
2023-01-12T17:41:15.699Z,31.03
2023-01-12T17:42:43.079Z,29.33
2023-01-12T17:43:52.039Z,36.52
2023-01-12T17:46:19.179Z,28.40
2023-01-12T17:47:28.075Z,23.10
2023-01-12T17:48:36.953Z,26.40
2023-01-12T17:49:47.211Z,23.60
2023-01-12T17:50:55.707Z,22.10
2023-01-12T17:52:04.770Z,28.22
2023-01-12T17:53:17.075Z,25.90
2023-01-12T17:54:25.916Z,19.88
2023-01-12T17:55:47.525Z,20.40
2023-01-12T17:56:50.202Z,25.37
2023-01-12T17:57:58.762Z,22.70
2023-01-12T17:59:08.675Z,27.85
2023-01-12T18:01:31.995Z,26.80
2023-01-12T18:02:43.006Z,24.03
2023-01-12T18:03:52.492Z,28.92
2023-01-12T18:06:25.883Z,28.25
2023-01-12T18:07:29.119Z,26.42
2023-01-12T18:08:37.712Z,29.67
2023-01-12T18:09:46.996Z,29.98
2023-01-12T18:10:57.159Z,32.50
2023-01-12T18:12:06.992Z,29.55
2023-01-12T18:13:16.216Z,31.30
2023-01-12T18:14:25.629Z,33.85
2023-01-12T18:15:34.194Z,33.27
2023-01-12T18:16:42.862Z,31.88
2023-01-12T18:17:52.462Z,37.88
2023-01-12T18:19:06.859Z,36.37
2023-01-12T18:20:15.991Z,31.73
2023-01-12T18:21:27.385Z,33.65
2023-01-12T18:22:36.519Z,32.48
2023-01-12T18:23:45.226Z,38.10
2023-01-12T18:24:53.978Z,33.75
2023-01-12T18:26:04.320Z,37.22
2023-01-12T18:27:13.892Z,39.85
2023-01-12T18:28:23.822Z,39.05
2023-01-12T18:29:32.544Z,36.55
2023-01-12T18:30:41.293Z,35.20
2023-01-12T18:31:49.937Z,37.83
2023-01-12T18:32:59.481Z,36.42
2023-01-12T18:34:10.241Z,36.33
2023-01-12T18:35:20.975Z,35.08
2023-01-12T18:36:29.734Z,36.67
2023-01-12T18:37:38.241Z,33.13
2023-01-12T18:38:48.899Z,35.25
2023-01-12T18:39:57.664Z,37.20
2023-01-12T18:41:25.260Z,34.13
2023-01-12T18:42:49.334Z,34.13
2023-01-12T18:44:01.850Z,43.17
2023-01-12T18:45:10.646Z,35.67
2023-01-12T18:46:20.005Z,38.78
2023-01-12T18:47:47.261Z,41.18
2023-01-12T18:48:55.847Z,43.87
2023-01-12T18:50:25.711Z,37.50
2023-01-12T18:51:52.582Z,35.56
2023-01-12T18:53:21.624Z,30.55
2023-01-12T18:54:31.683Z,29.80
2023-01-12T18:55:41.911Z,31.23
2023-01-12T18:56:52.310Z,27.55
2023-01-12T18:58:01.946Z,31.30
2023-01-12T18:59:11.664Z,27.86
2023-01-12T19:00:22.979Z,26.10
2023-01-12T19:02:46.563Z,28.50
2023-01-12T19:03:56.072Z,24.03
2023-01-12T19:05:13.380Z,27.65
2023-01-12T19:06:24.162Z,27.08
2023-01-12T19:07:34.567Z,27.63
2023-01-12T19:09:02.336Z,24.95
2023-01-12T19:10:11.660Z,23.78
2023-01-12T19:11:20.611Z,30.47
2023-01-12T19:12:30.696Z,25.55
2023-01-12T19:13:58.040Z,25.67
2023-01-12T19:15:27.305Z,31.02
2023-01-12T19:16:54.631Z,26.68
2023-01-12T19:18:03.397Z,22.98
2023-01-12T19:19:12.362Z,31.83
2023-01-12T19:20:21.152Z,33.33
2023-01-12T19:21:48.384Z,33.08
2023-01-12T19:23:15.541Z,28.08
2023-01-12T19:24:42.656Z,32.00
2023-01-12T19:26:09.848Z,28.77
2023-01-12T19:27:37.100Z,33.42
2023-01-12T19:28:46.871Z,32.15
2023-01-12T19:29:55.655Z,31.63
2023-01-12T19:31:07.700Z,34.62
2023-01-12T19:32:17.622Z,37.38
2023-01-12T19:33:27.850Z,34.95
2023-01-12T19:34:37.549Z,33.90
2023-01-12T19:35:47.139Z,29.12
2023-01-12T19:36:57.246Z,22.25
2023-01-12T19:38:06.457Z,22.68
2023-01-12T19:39:16.937Z,25.08
2023-01-12T19:44:29.608Z,24.07
2023-01-12T19:45:42.877Z,26.90
2023-01-12T19:46:52.054Z,24.58
2023-01-12T19:48:00.929Z,25.15
2023-01-12T19:49:10.354Z,22.10
2023-01-12T19:50:19.248Z,27.45
2023-01-12T19:51:27.833Z,26.10
2023-01-12T19:53:54.891Z,31.15
2023-01-12T19:55:06.072Z,28.87
2023-01-12T19:56:15.342Z,27.62
2023-01-12T19:57:24.285Z,34.27
2023-01-12T19:58:36.403Z,36.82
2023-01-12T19:59:47.491Z,36.78
2023-01-12T22:24:18.149Z,58.82
2023-01-12T22:25:27.497Z,46.28
2023-01-12T22:26:36.751Z,42.33
2023-01-12T22:27:47.064Z,36.43
2023-01-12T22:28:56.272Z,36.75
2023-01-12T22:30:08.321Z,31.97
2023-01-12T22:31:20.356Z,31.87
2023-01-12T22:32:29.765Z,32.10
2023-01-12T22:33:39.735Z,31.90
2023-01-12T22:34:48.275Z,29.13
2023-01-12T22:37:12.696Z,26.85
2023-01-12T22:38:21.876Z,26.27
2023-01-12T22:39:30.956Z,25.12
2023-01-12T22:40:39.546Z,24.55
2023-01-12T22:41:49.979Z,24.53
2023-01-12T22:43:17.138Z,26.85
2023-01-12T22:44:25.949Z,17.90
2023-01-12T22:45:37.057Z,21.50
2023-01-12T22:46:47.077Z,18.73
2023-01-12T22:47:58.060Z,23.70
2023-01-12T22:49:06.822Z,20.43
2023-01-12T22:50:17.663Z,23.58
2023-01-12T22:51:29.261Z,22.20
2023-01-12T22:52:38.707Z,23.24
2023-01-12T22:53:47.860Z,20.58
2023-01-12T22:54:56.876Z,20.13
2023-01-12T22:56:07.019Z,19.00
2023-01-12T22:57:15.685Z,22.90
2023-01-12T22:58:24.422Z,25.60
2023-01-12T22:59:33.088Z,14.65
2023-01-12T23:00:44.112Z,15.27
2023-01-12T23:01:53.301Z,16.97
2023-01-12T23:16:43.480Z,20.17
2023-01-12T23:17:53.191Z,22.75
2023-01-12T23:19:03.006Z,15.77
2023-01-12T23:20:12.043Z,21.90
2023-01-12T23:21:25.758Z,21.98
2023-01-12T23:22:34.454Z,19.92
2023-01-12T23:23:51.059Z,22.15
2023-01-12T23:25:00.016Z,19.30
2023-01-12T23:26:11.547Z,19.97
2023-01-12T23:27:21.289Z,19.08
2023-01-12T23:28:30.679Z,17.37
2023-01-12T23:29:41.176Z,18.62
2023-01-12T23:30:49.794Z,18.85
2023-01-12T23:31:59.102Z,25.18
2023-01-12T23:33:08.576Z,24.53
2023-01-12T23:34:20.504Z,23.93
2023-01-12T23:35:32.241Z,22.02
2023-01-12T23:36:42.562Z,26.25
2023-01-12T23:37:52.383Z,28.80
2023-01-12T23:40:20.001Z,34.75
2023-01-12T23:41:31.108Z,22.60
2023-01-12T23:42:39.693Z,26.68
2023-01-12T23:43:57.445Z,26.20
2023-01-12T23:45:07.495Z,26.15
2023-01-12T23:46:19.794Z,31.80
2023-01-12T23:47:29.757Z,28.85
2023-01-12T23:48:41.506Z,22.98
2023-01-12T23:49:50.086Z,18.00
2023-01-12T23:51:00.528Z,25.92
2023-01-12T23:52:09.576Z,22.55
2023-01-12T23:53:18.266Z,23.48
2023-01-12T23:54:27.060Z,20.23
2023-01-12T23:55:39.686Z,19.73
2023-01-12T23:56:51.923Z,22.20
2023-01-12T23:58:02.187Z,17.52
2023-01-12T23:59:11.477Z,23.10
